Time;durP1;ratioP1;P1;durP2;ratioP2;P2;SDS_P1;SDS_P2;PMS_P1;PMS_P2;Temp;Humidity;BMP_temperature;BMP_pressure;BME280_temperature;BME280_humidity;BME280_pressure;Samples;Min_cycle;Max_cycle;Signal;HPM_P1;HPM_P2
2022/08/04 00:01:55;;;;;;;5.65;1.98;;;24.40;99.90;;;24.56;53.21;100856.69;4985937;28;97108;-48
2022/08/04 00:04:48;;;;;;;2.95;1.25;;;24.40;99.90;;;24.52;51.74;100857.97;4986038;28;97174;-45
2022/08/04 00:08:01;;;;;;;7.32;2.25;;;24.40;99.90;;;24.52;51.93;100855.28;4987148;27;100374;-48
2022/08/04 00:10:28;;;;;;;3.40;1.33;;;24.40;99.90;;;24.45;51.85;100855.00;4938236;28;101589;-44
2022/08/04 00:12:56;;;;;;;1.00;0.95;;;24.40;99.90;;;24.46;51.77;100851.31;4973022;27;98335;-46
2022/08/04 00:15:23;;;;;;;2.55;1.48;;;24.40;99.90;;;24.46;51.98;100845.06;4993661;28;97400;-44
2022/08/04 00:18:08;;;;;;;1.58;1.25;;;24.30;99.90;;;24.47;52.01;100850.31;4992590;27;96656;-45
2022/08/04 00:20:39;;;;;;;1.85;1.10;;;24.40;99.90;;;24.44;51.85;100847.88;4998348;27;97172;-46
2022/08/04 00:23:06;;;;;;;1.67;1.10;;;24.30;99.90;;;24.41;51.92;100850.84;4984535;27;97048;-46
2022/08/04 00:25:32;;;;;;;1.23;1.13;;;24.30;99.90;;;24.40;51.98;100843.75;4996281;27;96660;-45
2022/08/04 00:28:00;;;;;;;1.95;1.35;;;24.30;99.90;;;24.40;51.88;100843.75;4987814;28;99070;-45
2022/08/04 00:30:26;;;;;;;1.63;1.07;;;24.30;99.90;;;24.39;51.99;100850.13;4994974;27;99332;-48
2022/08/04 00:32:55;;;;;;;6.28;2.03;;;24.30;99.90;;;24.41;52.81;100850.84;4992260;27;97577;-45
2022/08/04 00:35:22;;;;;;;5.85;2.45;;;24.30;99.90;;;24.45;54.31;100849.59;4994406;27;97329;-47
2022/08/04 00:37:50;;;;;;;4.70;2.20;;;24.30;99.90;;;24.40;52.22;100854.53;4981749;28;97429;-47
2022/08/04 00:40:40;;;;;;;1.80;0.95;;;24.30;99.90;;;24.38;51.98;100845.75;4993473;28;97453;-48
2022/08/04 00:43:18;;;;;;;1.63;1.25;;;24.20;99.90;;;24.36;52.09;100846.88;4992413;27;96761;-45
2022/08/04 00:46:25;;;;;;;2.30;1.00;;;24.20;99.90;;;24.34;52.03;100855.09;4985047;28;97162;-46
2022/08/04 00:49:16;;;;;;;4.13;2.03;;;24.20;99.90;;;24.30;52.28;100842.88;4987547;27;100477;-46
2022/08/04 00:52:16;;;;;;;1.08;0.95;;;24.20;99.90;;;24.31;52.34;100844.59;4987913;28;97193;-46
2022/08/04 00:55:11;;;;;;;1.13;0.93;;;24.20;99.90;;;24.30;52.00;100850.97;4992996;27;97504;-44
2022/08/04 00:58:20;;;;;;;1.35;0.90;;;24.20;99.90;;;24.30;52.05;100845.56;4983461;27;97523;-44
2022/08/04 01:01:42;;;;;;;0.90;0.90;;;24.10;99.90;;;24.32;53.56;100840.91;4997990;27;100347;-46
2022/08/04 01:04:29;;;;;;;1.25;0.95;;;24.20;99.90;;;24.29;52.29;100841.13;4979353;27;98287;-47
2022/08/04 01:07:21;;;;;;;1.23;1.00;;;24.20;99.90;;;24.30;52.23;100837.47;4994822;27;97437;-44
2022/08/04 01:10:16;;;;;;;1.48;1.10;;;24.20;99.90;;;24.30;52.21;100834.78;4992213;27;97550;-47
2022/08/04 01:13:14;;;;;;;1.40;1.00;;;24.20;99.90;;;24.30;52.10;100832.09;5005092;27;96765;-47
2022/08/04 01:15:50;;;;;;;1.30;1.20;;;24.20;99.90;;;24.29;52.21;100820.47;4986838;27;99776;-45
2022/08/04 01:18:48;;;;;;;2.05;1.27;;;24.20;99.90;;;24.31;52.09;100828.44;5003382;27;97271;-43
2022/08/04 01:21:48;;;;;;;3.03;1.58;;;24.20;99.90;;;24.31;52.81;100828.44;4978488;27;97666;-43
2022/08/04 01:24:55;;;;;;;1.35;1.00;;;24.20;99.90;;;24.30;52.21;100826.69;5003061;27;101913;-43
2022/08/04 01:28:14;;;;;;;2.13;1.02;;;24.20;99.90;;;24.29;52.17;100823.16;4993894;27;99787;-43
2022/08/04 01:30:44;;;;;;;1.08;0.82;;;24.20;99.90;;;24.27;52.39;100827.81;4999604;27;98825;-46
2022/08/04 01:33:13;;;;;;;1.10;0.90;;;24.10;99.90;;;24.27;52.29;100822.41;5002184;27;96963;-45
2022/08/04 01:36:02;;;;;;;1.65;0.98;;;24.10;99.90;;;24.29;52.26;100825.84;4996678;28;98549;-46
2022/08/04 01:38:36;;;;;;;0.80;0.70;;;24.20;99.90;;;24.27;52.29;100821.56;4986889;27;101668;-46
2022/08/04 01:41:13;;;;;;;5.03;2.30;;;24.20;99.90;;;24.29;52.40;100824.97;4992178;27;97709;-44
2022/08/04 01:43:45;;;;;;;1.73;1.45;;;24.10;99.90;;;24.28;52.65;100816.03;4989549;28;97607;-48
2022/08/04 01:46:16;;;;;;;1.10;0.90;;;24.20;99.90;;;24.27;52.19;100822.41;4994706;27;100452;-45
2022/08/04 01:48:46;;;;;;;1.13;1.02;;;24.10;99.90;;;24.28;52.25;100823.25;4996788;27;97013;-45
2022/08/04 01:51:12;;;;;;;1.27;0.93;;;24.10;99.90;;;24.27;52.18;100821.56;4998450;27;97147;-45
2022/08/04 01:53:42;;;;;;;1.00;0.90;;;24.20;99.90;;;24.28;52.38;100823.25;5004935;27;97166;-47
2022/08/04 01:56:10;;;;;;;1.45;0.90;;;24.20;99.90;;;24.28;52.20;100817.88;4984531;27;97401;-47
2022/08/04 01:58:38;;;;;;;0.80;0.70;;;24.10;99.90;;;24.29;52.21;100827.66;4986028;27;97238;-49
2022/08/04 02:01:07;;;;;;;0.93;0.80;;;24.20;99.90;;;24.29;52.32;100820.47;4991716;27;97308;-47
2022/08/04 02:03:36;;;;;;;1.20;1.05;;;24.20;99.90;;;24.29;52.27;100824.97;4992391;27;97213;-45
2022/08/04 02:06:45;;;;;;;1.10;1.00;;;24.10;99.90;;;24.30;52.16;100821.31;4993000;27;97807;-46
2022/08/04 02:09:18;;;;;;;1.00;0.90;;;24.20;99.90;;;24.28;52.17;100817.88;4991223;27;101402;-44
2022/08/04 02:12:04;;;;;;;4.70;2.30;;;24.20;99.90;;;24.30;52.77;100818.63;4995418;28;97247;-47
2022/08/04 02:15:01;;;;;;;1.10;1.00;;;24.20;99.90;;;24.29;52.29;100816.88;4999383;27;96719;-43
2022/08/04 02:18:05;;;;;;;1.13;0.88;;;24.10;99.90;;;24.28;52.34;100809.78;4990946;27;100492;-45
2022/08/04 02:20:38;;;;;;;1.05;0.95;;;24.10;99.90;;;24.26;52.18;100809.06;4993929;27;100298;-43
2022/08/04 02:23:08;;;;;;;0.70;0.70;;;24.10;99.90;;;24.26;52.35;100803.69;4997886;27;97242;-44
2022/08/04 02:25:46;;;;;;;0.93;0.80;;;24.10;99.90;;;24.27;52.29;100800.84;5004325;27;97053;-44
2022/08/04 02:28:17;;;;;;;0.80;0.73;;;24.10;99.90;;;24.27;52.40;100805.38;5002526;27;100615;-46
2022/08/04 02:30:53;;;;;;;1.55;1.00;;;24.10;99.90;;;24.27;52.36;100805.38;5011725;27;98270;-51
2022/08/04 02:33:31;;;;;;;1.00;0.88;;;24.20;99.90;;;24.28;52.25;100807.09;5012577;27;96739;-44
2022/08/04 02:36:02;;;;;;;2.45;1.13;;;24.10;99.90;;;24.28;52.30;100807.09;4985021;28;97483;-45
2022/08/04 02:38:55;;;;;;;0.88;0.80;;;24.10;99.90;;;24.31;52.32;100801.47;4990542;28;98813;-46
2022/08/04 02:41:26;;;;;;;0.95;0.77;;;24.20;99.90;;;24.28;52.25;100801.69;4982658;28;102693;-45
2022/08/04 02:44:00;;;;;;;0.77;0.77;;;24.10;99.90;;;24.30;52.17;100794.34;4988507;28;97352;-44
2022/08/04 02:46:29;;;;;;;1.83;0.90;;;24.20;99.90;;;24.30;52.22;100797.94;4992520;27;99948;-44
2022/08/04 02:48:56;;;;;;;1.35;0.98;;;24.20;99.90;;;24.31;52.29;100801.47;4991858;27;97489;-46
2022/08/04 02:51:29;;;;;;;0.93;0.88;;;24.20;99.90;;;24.34;52.27;100793.09;4997400;28;97907;-48
2022/08/04 02:53:59;;;;;;;1.27;1.17;;;24.20;99.90;;;24.33;52.13;100794.94;4991658;27;96825;-44
2022/08/04 02:56:30;;;;;;;1.10;1.00;;;24.20;99.90;;;24.32;52.28;100797.78;4994397;28;96850;-45
2022/08/04 02:59:03;;;;;;;1.13;1.02;;;24.20;99.90;;;24.35;52.29;100797.50;4992986;27;97768;-49
2022/08/04 03:01:30;;;;;;;1.67;1.03;;;24.20;99.90;;;24.32;52.21;100793.25;5010323;27;97965;-44
2022/08/04 03:04:08;;;;;;;1.17;1.08;;;24.20;99.90;;;24.35;52.23;100789.41;5009109;27;96624;-43
2022/08/04 03:07:05;;;;;;;1.10;0.90;;;24.20;99.90;;;24.35;52.24;100792.13;5005475;27;96670;-43
2022/08/04 03:10:29;;;;;;;1.00;0.90;;;24.20;99.90;;;24.33;52.24;100781.47;4989986;27;102113;-43
2022/08/04 03:13:27;;;;;;;0.73;0.73;;;24.20;99.90;;;24.32;52.23;100787.00;4968492;28;101772;-43
2022/08/04 03:16:02;;;;;;;1.02;0.98;;;24.20;99.90;;;24.30;52.43;100783.56;5003238;27;96740;-43
2022/08/04 03:18:43;;;;;;;1.25;1.08;;;24.10;99.90;;;24.30;52.30;100783.56;5003766;28;97458;-44
2022/08/04 03:21:47;;;;;;;1.10;1.00;;;24.10;99.90;;;24.32;52.27;100781.63;5000055;27;96949;-46
2022/08/04 03:24:47;;;;;;;0.80;0.80;;;24.20;99.90;;;24.31;52.29;100785.31;4991662;27;101259;-48
2022/08/04 03:27:49;;;;;;;0.98;0.82;;;24.10;99.90;;;24.29;52.36;100781.84;4986388;27;97083;-46
2022/08/04 03:30:19;;;;;;;2.45;1.80;;;24.10;99.90;;;24.26;52.51;100788.38;5001479;27;97063;-44
2022/08/04 03:33:18;;;;;;;1.42;0.90;;;24.20;99.90;;;24.29;52.61;100787.22;4988716;27;97935;-47
2022/08/04 03:36:02;;;;;;;2.50;1.58;;;24.10;99.90;;;24.27;52.54;100789.22;4996239;27;100266;-49
2022/08/04 03:38:55;;;;;;;4.80;2.50;;;24.10;99.90;;;24.27;52.63;100783.84;4986970;27;97098;-49
2022/08/04 03:42:10;;;;;;;0.80;0.80;;;24.10;99.90;;;24.27;52.35;100773.03;4984314;27;97478;-44
2022/08/04 03:44:54;;;;;;;1.03;0.93;;;24.10;99.90;;;24.25;52.34;100775.03;4987913;27;101923;-48
2022/08/04 03:47:55;;;;;;;1.15;0.80;;;24.10;99.90;;;24.26;52.36;100779.44;4986039;28;101624;-45
2022/08/04 03:54:07;;;;;;;1.35;1.15;;;24.10;99.90;;;24.23;52.55;100771.63;4989238;28;97332;-45
2022/08/04 03:57:24;;;;;;;2.08;1.40;;;24.10;99.90;;;24.23;52.43;100777.03;4987660;28;102875;-44
2022/08/04 04:00:08;;;;;;;1.85;1.60;;;24.10;99.90;;;24.21;52.60;100779.88;4985249;27;99870;-44
2022/08/04 04:03:14;;;;;;;1.13;0.90;;;24.10;99.90;;;24.22;52.56;100769.94;4990818;27;98157;-46
2022/08/04 04:06:04;;;;;;;4.95;3.33;;;24.10;99.90;;;24.24;53.93;100778.72;4988875;27;97472;-47
2022/08/04 04:09:38;;;;;;;1.63;1.52;;;24.10;99.90;;;24.22;52.57;100775.31;4986828;28;101826;-45
2022/08/04 04:12:22;;;;;;;1.23;1.05;;;24.00;99.90;;;24.19;52.87;100776.47;4927560;28;96711;-44
2022/08/04 04:15:10;;;;;;;6.00;3.03;;;24.00;99.90;;;24.17;52.91;100786.53;4935816;28;97452;-47
2022/08/04 04:18:15;;;;;;;7.43;2.85;;;24.10;99.90;;;24.21;53.44;100789.78;4971037;28;97384;-44
2022/08/04 04:21:02;;;;;;;1.30;1.20;;;24.00;99.90;;;24.20;52.95;100791.63;4976428;28;100601;-43
2022/08/04 04:24:35;;;;;;;2.88;1.42;;;24.10;99.90;;;24.23;52.64;100793.19;4992005;27;101007;-45
2022/08/04 04:27:26;;;;;;;1.20;0.93;;;24.00;99.90;;;24.21;52.70;100779.00;4926383;28;102941;-44
2022/08/04 04:30:23;;;;;;;1.00;0.88;;;24.10;99.90;;;24.22;52.65;100780.72;4928436;28;97442;-49
2022/08/04 04:33:11;;;;;;;1.23;1.10;;;24.00;99.90;;;24.21;52.53;100779.00;4969430;27;98650;-46
2022/08/04 04:35:42;;;;;;;1.17;1.10;;;24.10;99.90;;;24.20;52.79;100788.09;4994329;27;103946;-46
2022/08/04 04:39:04;;;;;;;1.40;1.30;;;24.10;99.90;;;24.22;52.66;100786.09;4985931;27;96782;-43
2022/08/04 04:42:11;;;;;;;1.13;1.00;;;24.10;99.90;;;24.22;52.58;100791.50;4983707;28;97189;-46
2022/08/04 04:45:05;;;;;;;1.30;1.20;;;24.10;99.90;;;24.21;52.78;100789.78;4951390;28;100387;-44
2022/08/04 04:47:54;;;;;;;1.33;1.23;;;24.10;99.90;;;24.22;52.74;100791.50;4978953;28;102826;-45
2022/08/04 04:50:55;;;;;;;1.30;1.20;;;24.00;99.90;;;24.21;52.63;100789.78;4976800;27;99976;-45
2022/08/04 04:54:06;;;;;;;1.20;1.10;;;24.10;99.90;;;24.20;52.57;100788.09;4989676;27;97275;-45
2022/08/04 04:57:05;;;;;;;1.90;1.27;;;24.00;99.90;;;24.18;52.63;100792.78;4982203;28;103146;-47
2022/08/04 04:59:36;;;;;;;2.30;1.40;;;24.00;99.90;;;24.16;52.69;100786.63;4977315;28;101849;-45
2022/08/04 05:02:16;;;;;;;1.30;1.20;;;24.00;99.90;;;24.15;52.65;100787.63;4990514;27;103244;-45
2022/08/04 05:04:51;;;;;;;1.27;1.17;;;24.00;99.90;;;24.15;52.65;100788.47;4996047;27;97226;-44
2022/08/04 05:08:06;;;;;;;1.35;1.23;;;24.00;99.90;;;24.18;52.68;100792.78;4986016;27;100895;-44
2022/08/04 05:11:16;;;;;;;1.15;1.05;;;24.00;99.90;;;24.17;52.76;100793.75;4991693;27;101190;-45
2022/08/04 05:13:51;;;;;;;1.90;1.40;;;24.10;99.90;;;24.15;52.75;100787.63;4986032;27;99128;-47
2022/08/04 05:16:39;;;;;;;1.20;1.10;;;24.00;99.90;;;24.16;52.70;100792.91;4980974;27;97351;-45
2022/08/04 05:19:55;;;;;;;1.73;1.55;;;24.10;99.90;;;24.21;53.37;100795.19;4989257;27;97906;-47
2022/08/04 05:22:30;;;;;;;4.20;3.22;;;24.10;99.90;;;24.22;53.86;100794.19;4992901;27;101150;-49
2022/08/04 05:25:35;;;;;;;3.92;3.08;;;24.10;99.90;;;24.25;54.22;100802.00;4992628;27;96746;-49
2022/08/04 05:28:18;;;;;;;5.10;3.30;;;24.10;99.90;;;24.23;54.24;100803.97;4989543;27;97263;-48
2022/08/04 05:30:50;;;;;;;3.88;3.40;;;24.00;99.90;;;24.24;54.61;100800.28;4992645;28;96990;-45
2022/08/04 05:33:49;;;;;;;5.90;3.60;;;24.00;99.90;;;24.24;54.72;100811.06;4981417;28;101789;-48
2022/08/04 05:36:19;;;;;;;5.85;3.53;;;24.00;99.90;;;24.20;54.42;100809.66;4989181;27;97308;-48
2022/08/04 05:38:53;;;;;;;6.13;3.65;;;24.00;99.90;;;24.21;54.52;100800.56;5001053;28;96791;-46
2022/08/04 05:41:21;;;;;;;3.22;2.30;;;24.00;99.90;;;24.18;53.17;100804.41;4993894;27;103215;-45
2022/08/04 05:43:48;;;;;;;3.70;3.05;;;24.00;99.90;;;24.20;53.18;100806.94;5001302;27;97005;-54
2022/08/04 05:46:15;;;;;;;4.22;3.17;;;24.00;99.90;;;24.21;53.47;100800.56;4997308;27;96877;-44
2022/08/04 05:48:44;;;;;;;5.05;3.08;;;24.10;99.90;;;24.24;52.88;100806.53;5007702;28;97378;-47
2022/08/04 05:51:11;;;;;;;4.10;2.88;;;24.10;99.90;;;24.26;53.29;100803.69;4992019;27;97774;-45
2022/08/04 05:53:43;;;;;;;2.25;1.80;;;24.10;99.90;;;24.27;52.75;100805.38;4994483;28;97583;-45
2022/08/04 05:56:13;;;;;;;1.85;1.67;;;24.10;99.90;;;24.29;52.63;100803.41;4998313;27;96973;-49
2022/08/04 05:58:41;;;;;;;1.98;1.77;;;24.20;99.90;;;24.29;52.58;100793.50;5003340;27;97225;-47
2022/08/04 06:01:10;;;;;;;7.22;3.30;;;24.20;99.90;;;24.35;53.79;100802.03;4996055;27;99815;-47
2022/08/04 06:03:37;;;;;;;4.35;3.33;;;24.20;99.90;;;24.35;52.73;100797.50;4993064;27;98890;-46
2022/08/04 06:06:04;;;;;;;4.63;3.17;;;24.20;99.90;;;24.36;52.68;100803.75;4994948;27;96828;-47
2022/08/04 06:08:30;;;;;;;4.45;3.00;;;24.30;99.90;;;24.41;53.12;100793.38;4991132;28;98025;-44
2022/08/04 06:11:04;;;;;;;5.88;3.13;;;24.30;99.90;;;24.44;52.60;100803.88;4991825;27;99889;-45
2022/08/04 06:13:42;;;;;;;4.40;2.92;;;24.30;99.90;;;24.42;52.38;100798.63;4991406;28;97684;-44
2022/08/04 06:16:10;;;;;;;3.30;2.95;;;24.30;99.90;;;24.41;52.47;100796.09;4991099;27;97055;-46
2022/08/04 06:18:38;;;;;;;6.55;3.60;;;24.30;99.90;;;24.44;52.38;100793.94;4991035;28;97430;-44
2022/08/04 06:21:06;;;;;;;1.75;1.58;;;24.30;99.90;;;24.40;52.24;100795.22;4991339;27;97342;-46
2022/08/04 06:23:36;;;;;;;5.45;3.17;;;24.30;99.90;;;24.39;52.33;100795.38;4998057;27;97590;-45
2022/08/04 06:26:04;;;;;;;5.80;3.20;;;24.30;99.90;;;24.41;52.93;100796.09;4992041;27;98088;-46
2022/08/04 06:28:31;;;;;;;2.05;1.50;;;24.30;99.90;;;24.40;52.29;100795.22;4969806;28;101181;-47
2022/08/04 06:31:02;;;;;;;5.78;3.35;;;24.30;99.90;;;24.42;52.22;100798.63;4988941;27;97559;-45
2022/08/04 06:33:32;;;;;;;6.32;3.40;;;24.30;99.90;;;24.43;52.29;100794.09;4996257;28;97332;-46
2022/08/04 06:36:04;;;;;;;6.45;2.95;;;24.30;99.90;;;24.43;52.18;100794.94;4993334;27;96680;-47
2022/08/04 06:38:34;;;;;;;2.30;2.08;;;24.30;99.90;;;24.46;51.74;100800.06;4999862;27;97442;-49
2022/08/04 06:41:03;;;;;;;6.60;3.45;;;24.30;99.90;;;24.51;51.18;100795.09;4983036;28;97780;-48
2022/08/04 06:43:36;;;;;;;6.00;3.20;;;24.40;99.90;;;24.45;51.89;100792.97;4975943;28;97353;-49
2022/08/04 06:46:04;;;;;;;1.48;1.38;;;24.40;99.90;;;24.40;51.98;100800.63;4983242;27;99783;-48
2022/08/04 06:48:31;;;;;;;1.92;1.70;;;24.40;99.90;;;24.31;52.28;100806.88;4989399;28;97126;-46
2022/08/04 06:50:57;;;;;;;2.33;1.52;;;24.30;99.90;;;24.31;52.11;100809.56;4990612;27;98818;-45
2022/08/04 06:53:26;;;;;;;3.80;2.42;;;24.30;99.90;;;24.41;51.80;100801.47;4991041;28;97434;-45
2022/08/04 06:55:53;;;;;;;2.58;1.67;;;24.30;99.90;;;24.37;52.11;100803.59;4995483;27;97346;-49
2022/08/04 06:58:20;;;;;;;2.78;2.03;;;24.30;99.90;;;24.28;52.20;100801.69;4990698;27;97035;-46
2022/08/04 07:00:47;;;;;;;2.47;2.15;;;24.20;99.90;;;24.29;52.32;100801.59;4994941;27;97164;-49
2022/08/04 07:03:15;;;;;;;7.47;2.80;;;24.20;99.90;;;24.45;51.05;100803.78;4980398;28;100938;-48
2022/08/04 07:05:42;;;;;;;5.07;2.10;;;24.30;99.90;;;24.48;51.94;100803.47;4986062;28;97349;-45
2022/08/04 07:08:10;;;;;;;7.15;2.10;;;24.40;99.90;;;24.37;52.18;100803.59;4984920;27;97334;-44
2022/08/04 07:10:37;;;;;;;2.42;1.80;;;24.30;99.90;;;24.36;52.14;100796.50;4977664;28;100080;-47
2022/08/04 07:13:04;;;;;;;4.10;2.67;;;24.30;99.90;;;24.42;51.38;100798.63;5002757;27;97033;-44
2022/08/04 07:15:31;;;;;;;4.18;2.00;;;24.30;99.90;;;24.48;52.09;100798.09;4998390;27;97301;-45
2022/08/04 07:17:58;;;;;;;3.28;1.90;;;24.40;99.90;;;24.47;51.80;100791.00;4994378;28;97907;-44
2022/08/04 07:20:25;;;;;;;3.17;2.33;;;24.40;99.90;;;24.47;51.72;100791.00;4998050;27;96535;-45
2022/08/04 07:22:52;;;;;;;4.72;3.20;;;24.40;99.90;;;24.48;50.80;100792.69;4993942;27;97169;-46
2022/08/04 07:25:18;;;;;;;4.07;2.00;;;24.40;99.90;;;24.41;51.94;100791.53;4984890;27;97337;-46
2022/08/04 07:27:44;;;;;;;7.13;2.65;;;24.40;99.90;;;24.42;51.70;100804.03;4990146;28;97197;-45
2022/08/04 07:30:10;;;;;;;5.45;2.22;;;24.40;99.90;;;24.41;52.08;100802.31;4984980;27;97002;-46
2022/08/04 07:32:40;;;;;;;4.82;2.60;;;24.40;99.90;;;24.41;51.78;100802.31;4997024;27;97280;-44
2022/08/04 07:35:07;;;;;;;8.90;2.58;;;24.40;99.90;;;24.34;52.12;100798.50;4993857;27;97257;-45
2022/08/04 07:37:33;;;;;;;10.02;3.35;;;24.30;99.90;;;24.30;52.05;100800.63;4999195;28;96814;-45
2022/08/04 07:40:00;;;;;;;5.30;2.42;;;24.30;99.90;;;24.28;52.32;100797.16;5001389;27;97526;-46
2022/08/04 07:42:26;;;;;;;13.07;3.63;;;24.30;99.90;;;24.29;52.25;100800.72;5001407;27;96844;-44
2022/08/04 07:44:52;;;;;;;17.60;3.97;;;24.20;99.90;;;24.36;52.59;100799.22;4998427;28;96885;-47
2022/08/04 07:47:19;;;;;;;7.57;3.33;;;24.30;99.90;;;24.46;51.00;100805.47;5003610;27;96877;-44
2022/08/04 07:49:44;;;;;;;12.50;3.63;;;24.30;99.90;;;24.50;52.10;100803.34;5005140;28;97447;-44
2022/08/04 07:52:11;;;;;;;4.47;2.95;;;24.50;99.90;;;24.56;52.18;100797.38;4987520;28;96707;-44
2022/08/04 07:54:40;;;;;;;12.02;3.50;;;24.50;99.90;;;24.56;52.20;100800.91;5001137;28;97035;-44
2022/08/04 07:57:06;;;;;;;16.30;3.70;;;24.50;99.90;;;24.57;51.96;100802.63;5001999;27;97352;-45
2022/08/04 07:59:32;;;;;;;3.72;2.85;;;24.60;99.90;;;24.60;51.30;100796.97;5002062;27;98729;-48
2022/08/04 08:02:00;;;;;;;10.02;4.07;;;24.60;99.90;;;24.54;52.16;100797.50;4994707;27;97084;-45
2022/08/04 08:04:28;;;;;;;4.28;3.25;;;24.50;99.90;;;24.62;52.00;100794.97;4996858;27;97037;-46
2022/08/04 08:06:57;;;;;;;5.93;3.30;;;24.60;99.90;;;24.70;51.57;100790.69;4991590;27;97131;-46
2022/08/04 08:09:23;;;;;;;9.73;3.67;;;24.60;99.90;;;24.73;51.54;100801.19;4990449;27;96917;-46
2022/08/04 08:11:52;;;;;;;4.03;3.20;;;24.70;99.90;;;24.74;51.03;100806.47;4983087;27;97374;-46
2022/08/04 08:14:19;;;;;;;8.43;3.58;;;24.70;99.90;;;24.78;51.51;100798.94;4979572;28;97219;-45
2022/08/04 08:16:45;;;;;;;19.70;4.63;;;24.80;99.90;;;24.85;nan;100800.91;4988953;27;97187;-49
2022/08/04 08:19:13;;;;;;;5.90;3.10;;;24.80;99.90;;;24.86;51.37;100801.75;4990100;27;98342;-47
2022/08/04 08:21:40;;;;;;;13.52;3.92;;;24.80;99.90;;;24.83;51.10;100799.34;4987964;28;97447;-49
2022/08/04 08:24:06;;;;;;;16.90;4.35;;;24.80;99.90;;;24.74;50.93;100798.38;4991227;27;97470;-46
2022/08/04 08:26:32;;;;;;;11.02;3.88;;;24.80;99.90;;;24.74;51.22;100797.53;4996384;27;96659;-47
2022/08/04 08:28:58;;;;;;;20.98;5.22;;;24.70;99.90;;;24.56;51.43;100795.53;4990012;28;96772;-47
2022/08/04 08:31:24;;;;;;;6.32;3.55;;;24.60;99.90;;;24.56;51.97;100794.66;4995650;27;97534;-45
2022/08/04 08:33:51;;;;;;;14.63;4.65;;;24.50;99.90;;;24.53;51.95;100785.03;4991814;27;97153;-47
2022/08/04 08:36:37;;;;;;;30.13;5.65;;;24.50;99.90;;;24.52;51.55;100791.41;4992110;27;97267;-46
2022/08/04 08:39:47;;;;;;;20.23;5.22;;;24.50;99.90;;;24.50;51.53;100792.56;4997031;27;97462;-45
2022/08/04 08:42:46;;;;;;;10.95;4.05;;;24.40;99.90;;;24.47;51.64;100791.00;4993954;27;102966;-46
2022/08/04 08:45:30;;;;;;;30.83;5.75;;;24.40;99.90;;;24.48;51.99;100792.69;4993036;27;96836;-47
2022/08/04 08:48:40;;;;;;;19.25;4.75;;;24.40;99.90;;;24.44;51.79;100785.00;4991638;27;96846;-48
2022/08/04 08:51:33;;;;;;;16.75;4.07;;;24.40;99.90;;;24.62;52.24;100789.56;4988514;27;97064;-46
2022/08/04 08:54:08;;;;;;;13.32;4.28;;;24.50;99.90;;;24.61;52.12;100782.47;4994535;27;97652;-48
2022/08/04 08:57:15;;;;;;;119.35;14.65;;;24.60;99.90;;;24.54;51.87;100775.94;4999152;27;97335;-51
2022/08/04 09:00:05;;;;;;;166.70;19.85;;;24.60;99.90;;;24.38;51.94;100774.81;4985532;27;97079;-47
2022/08/04 09:02:53;;;;;;;192.55;23.85;;;24.40;99.90;;;24.27;52.38;100767.66;4986589;27;101242;-45
2022/08/04 09:05:34;;;;;;;206.40;26.27;;;24.30;99.90;;;24.31;52.26;100766.44;4988682;28;100960;-45
2022/08/04 09:08:29;;;;;;;163.75;21.73;;;24.30;99.90;;;24.28;52.65;100766.66;4988719;28;96832;-47
2022/08/04 09:11:19;;;;;;;233.00;27.25;;;24.30;99.90;;;24.30;52.42;100773.69;4988452;27;97507;-48
2022/08/04 09:14:28;;;;;;;144.43;20.45;;;24.30;99.90;;;24.35;52.50;100765.16;4995758;28;98561;-45
2022/08/04 09:17:04;;;;;;;169.88;22.17;;;24.30;99.90;;;24.19;52.64;100762.97;4969921;28;101118;-47
2022/08/04 09:19:44;;;;;;;170.93;24.77;;;24.20;99.90;;;24.12;53.00;100763.66;4988619;28;97065;-48
2022/08/04 09:22:18;;;;;;;180.15;23.90;;;24.20;99.90;;;24.18;53.05;100768.53;4988605;27;96962;-46
2022/08/04 09:25:11;;;;;;;134.27;18.38;;;24.20;99.90;;;24.29;52.90;100771.94;5000355;28;97061;-46
2022/08/04 09:27:54;;;;;;;43.97;8.00;;;24.20;99.90;;;24.30;52.24;100772.78;4996120;28;102044;-46
2022/08/04 09:30:33;;;;;;;111.60;16.98;;;24.30;99.90;;;24.36;52.78;100772.25;4985340;27;97330;-47
2022/08/04 09:33:35;;;;;;;8.15;3.80;;;24.30;99.90;;;24.41;52.31;100775.38;4998973;27;97253;-45
2022/08/04 09:36:22;;;;;;;28.48;5.30;;;24.40;99.90;;;24.46;52.48;100775.81;4995999;27;97627;-46
2022/08/04 09:39:32;;;;;;;16.25;4.57;;;24.40;99.90;;;24.48;51.81;100771.13;4990886;27;97294;-46
2022/08/04 09:42:27;;;;;;;7.70;3.15;;;24.40;99.90;;;24.56;53.15;100773.94;5002746;27;96624;-45
2022/08/04 09:45:40;;;;;;;20.75;5.00;;;24.50;99.90;;;24.63;52.20;100775.09;5011672;27;96619;-46
2022/08/04 09:48:13;;;;;;;3.38;2.55;;;24.60;99.90;;;25.05;49.30;100780.19;5006676;27;98649;-46
2022/08/04 09:50:46;;;;;;;24.60;5.38;;;24.90;99.90;;;25.43;49.90;100778.38;4986839;28;97360;-44
2022/08/04 09:53:59;;;;;;;4.55;2.78;;;25.50;99.90;;;25.52;49.75;100777.50;4996674;27;97417;-45
2022/08/04 09:56:44;;;;;;;15.43;3.50;;;25.70;99.90;;;25.39;49.85;100782.38;4984617;27;96796;-46
2022/08/04 09:59:29;;;;;;;9.73;3.17;;;25.50;99.90;;;25.29;50.10;100785.09;4989283;27;98231;-46
2022/08/04 10:02:04;;;;;;;6.50;2.30;;;25.40;99.90;;;25.51;49.65;100778.50;4997767;27;97893;-45
2022/08/04 10:04:34;;;;;;;12.57;3.65;;;25.60;99.90;;;25.47;49.80;100779.81;4990552;27;97251;-45
2022/08/04 10:07:06;;;;;;;6.47;2.75;;;25.60;99.90;;;25.47;49.59;100785.19;4991753;27;97038;-47
2022/08/04 10:10:16;;;;;;;6.20;2.60;;;25.50;99.90;;;25.52;49.56;100777.50;4990436;27;97648;-47
2022/08/04 10:13:30;;;;;;;6.63;3.10;;;25.60;99.90;;;25.73;48.77;100778.13;4991261;28;101184;-45
2022/08/04 10:16:05;;;;;;;5.95;3.28;;;25.80;99.90;;;25.56;48.99;100773.50;4997612;27;97350;-44
2022/08/04 10:19:24;;;;;;;9.77;2.97;;;25.70;99.90;;;25.43;49.07;100779.22;4999155;27;96825;-46
2022/08/04 10:22:16;;;;;;;6.85;2.42;;;25.60;99.90;;;25.77;48.24;100782.25;4982515;27;101713;-51
2022/08/04 10:25:29;;;;;;;14.98;4.88;;;25.80;99.40;;;25.66;49.54;100785.13;4992583;28;97380;-47
2022/08/04 10:28:02;;;;;;;7.68;2.83;;;25.70;99.90;;;25.99;47.74;100785.53;4984113;28;97255;-47
2022/08/04 10:30:32;;;;;;;6.75;2.72;;;26.10;99.50;;;26.13;47.49;100793.16;4988681;28;97081;-46
2022/08/04 10:33:19;;;;;;;6.53;2.80;;;26.30;99.20;;;26.22;46.78;100786.84;4990395;27;97769;-46
2022/08/04 10:35:50;;;;;;;4.72;2.65;;;26.30;98.80;;;26.26;46.92;100790.94;4994278;27;97265;-48
2022/08/04 10:38:39;;;;;;;9.10;3.10;;;26.30;98.90;;;26.07;47.78;100791.06;4986239;27;96643;-44
2022/08/04 10:41:29;;;;;;;5.00;2.58;;;26.20;99.30;;;26.04;48.26;100794.91;4989054;27;97317;-46
2022/08/04 10:44:15;;;;;;;6.00;2.28;;;26.10;99.50;;;25.89;48.44;100790.16;4997309;27;98931;-47
2022/08/04 10:46:50;;;;;;;9.45;2.90;;;25.90;99.80;;;25.76;48.74;100788.66;4989629;28;97439;-50
2022/08/04 10:49:46;;;;;;;6.95;2.78;;;25.80;99.90;;;25.88;47.46;100797.41;4990483;28;97374;-46
2022/08/04 10:52:38;;;;;;;4.63;2.38;;;25.90;98.80;;;25.93;48.01;100792.41;4977337;28;97083;-47
2022/08/04 10:55:30;;;;;;;4.28;2.00;;;26.00;99.20;;;26.36;45.54;100791.75;4998034;27;97336;-47
2022/08/04 10:58:02;;;;;;;5.97;1.83;;;26.50;97.50;;;26.72;43.49;100799.84;4981704;27;98151;-45
2022/08/04 11:00:31;;;;;;;10.00;2.80;;;26.80;96.60;;;26.61;45.09;100797.38;4995015;28;97132;-45
2022/08/04 11:03:48;;;;;;;3.67;2.15;;;26.80;97.60;;;26.59;45.87;100805.66;4991797;27;97100;-46
2022/08/04 11:06:14;;;;;;;5.43;2.00;;;26.70;97.90;;;26.83;45.12;100801.47;4934212;28;100444;-45
2022/08/04 11:08:57;;;;;;;4.85;2.00;;;27.00;97.00;;;26.59;46.00;100797.53;4945522;28;99902;-46
2022/08/04 11:11:43;;;;;;;5.78;2.45;;;26.80;97.90;;;26.55;46.32;100789.91;4967800;28;97027;-47
2022/08/04 11:14:17;;;;;;;6.55;2.03;;;26.70;97.80;;;26.62;46.15;100788.28;4989947;28;97220;-47